RYR378 EGPO-EGNS
Flight info
| Callsign | RYR378 |
|---|---|
| Flight time | 0h 51m |
| Altitude | 29000 |
| Route | TRN DCT FF26 |
| Aircraft | B738/M-SDE2E3FGHIRWXY/LB1 |
Departure
| Time | 2026-05-07 21:43 |
|---|---|
| Airport | Stornoway Airport (EGPO) |
Arrival
| Time | 2026-05-07 22:34 |
|---|---|
| Airport | Isle of Man Airport (EGNS) |
| Time | Latitude | Longitude | Altitude | Speed | Heading |
|---|---|---|---|---|---|
| 2026-05-07 21:27 | 58.21435 | -6.32116 | 20 ft | 0 kts | 174° |
| 2026-05-07 21:33 | 58.21447 | -6.32121 | 20 ft | 2 kts | 161° |
| 2026-05-07 21:34 | 58.21461 | -6.32136 | 20 ft | 2 kts | 128° |
| 2026-05-07 21:34 | 58.21468 | -6.32164 | 21 ft | 2 kts | 95° |
| 2026-05-07 21:34 | 58.21468 | -6.32189 | 20 ft | 1 kts | 85° |
| 2026-05-07 21:34 | 58.21468 | -6.32194 | 20 ft | 0 kts | 84° |
| 2026-05-07 21:36 | 58.21469 | -6.32171 | 20 ft | 4 kts | 85° |
| 2026-05-07 21:36 | 58.21472 | -6.32088 | 21 ft | 8 kts | 85° |
| 2026-05-07 21:36 | 58.21489 | -6.31983 | 21 ft | 8 kts | 56° |
| 2026-05-07 21:36 | 58.21535 | -6.31926 | 20 ft | 8 kts | 21° |
| 2026-05-07 21:37 | 58.21585 | -6.31897 | 20 ft | 8 kts | 2° |
| 2026-05-07 21:37 | 58.21630 | -6.31940 | 21 ft | 7 kts | 318° |
| 2026-05-07 21:37 | 58.21669 | -6.32007 | 20 ft | 8 kts | 317° |
| 2026-05-07 21:37 | 58.21722 | -6.32094 | 20 ft | 12 kts | 318° |
| 2026-05-07 21:38 | 58.21789 | -6.32208 | 20 ft | 14 kts | 318° |
| 2026-05-07 21:38 | 58.21868 | -6.32345 | 20 ft | 17 kts | 317° |
| 2026-05-07 21:38 | 58.21958 | -6.32498 | 20 ft | 17 kts | 318° |
| 2026-05-07 21:38 | 58.22043 | -6.32641 | 20 ft | 14 kts | 319° |
| 2026-05-07 21:39 | 58.22115 | -6.32758 | 16 ft | 13 kts | 318° |
| 2026-05-07 21:39 | 58.22158 | -6.32870 | 18 ft | 10 kts | 293° |
| 2026-05-07 21:39 | 58.22178 | -6.32998 | 22 ft | 10 kts | 283° |
| 2026-05-07 21:39 | 58.22193 | -6.33125 | 25 ft | 10 kts | 282° |
| 2026-05-07 21:40 | 58.22205 | -6.33249 | 24 ft | 9 kts | 277° |
| 2026-05-07 21:40 | 58.22225 | -6.33338 | 24 ft | 7 kts | 327° |
| 2026-05-07 21:40 | 58.22273 | -6.33357 | 25 ft | 7 kts | 355° |
| 2026-05-07 21:40 | 58.22320 | -6.33366 | 26 ft | 7 kts | 354° |
| 2026-05-07 21:41 | 58.22367 | -6.33376 | 26 ft | 7 kts | 354° |
| 2026-05-07 21:41 | 58.22421 | -6.33387 | 25 ft | 8 kts | 354° |
| 2026-05-07 21:41 | 58.22477 | -6.33396 | 25 ft | 6 kts | 355° |
| 2026-05-07 21:41 | 58.22514 | -6.33386 | 27 ft | 5 kts | 26° |
| 2026-05-07 21:42 | 58.22531 | -6.33327 | 29 ft | 6 kts | 101° |
| 2026-05-07 21:42 | 58.22499 | -6.33284 | 25 ft | 7 kts | 170° |
| 2026-05-07 21:42 | 58.22449 | -6.33274 | 24 ft | 7 kts | 174° |
| 2026-05-07 21:42 | 58.22384 | -6.33262 | 24 ft | 22 kts | 175° |
| 2026-05-07 21:43 | 58.21973 | -6.33183 | 25 ft | 95 kts | 174° |
| 2026-05-07 21:43 | 58.21103 | -6.33014 | 53 ft | 151 kts | 177° |
| 2026-05-07 21:43 | 58.20056 | -6.32812 | 849 ft | 147 kts | 178° |
| 2026-05-07 21:43 | 58.19047 | -6.32635 | 1773 ft | 148 kts | 181° |
| 2026-05-07 21:44 | 58.17916 | -6.32473 | 2194 ft | 177 kts | 181° |
| 2026-05-07 21:44 | 58.16653 | -6.32275 | 2769 ft | 186 kts | 181° |
| 2026-05-07 21:44 | 58.15348 | -6.32060 | 3464 ft | 190 kts | 181° |
| 2026-05-07 21:44 | 58.13973 | -6.31837 | 3839 ft | 216 kts | 181° |
| 2026-05-07 21:45 | 58.12413 | -6.31578 | 4491 ft | 229 kts | 180° |
| 2026-05-07 21:45 | 58.10811 | -6.31304 | 5366 ft | 234 kts | 180° |
| 2026-05-07 21:45 | 58.09170 | -6.31024 | 6222 ft | 239 kts | 180° |
| 2026-05-07 21:45 | 58.07500 | -6.30557 | 7029 ft | 247 kts | 172° |
| 2026-05-07 21:46 | 58.05820 | -6.29641 | 7858 ft | 254 kts | 169° |
| 2026-05-07 21:46 | 58.04123 | -6.28609 | 8710 ft | 258 kts | 168° |
| 2026-05-07 21:46 | 58.02403 | -6.27548 | 9575 ft | 262 kts | 168° |
| 2026-05-07 21:46 | 58.00634 | -6.26465 | 10218 ft | 274 kts | 168° |
| 2026-05-07 21:47 | 57.98758 | -6.25337 | 10417 ft | 299 kts | 168° |
| 2026-05-07 21:47 | 57.96691 | -6.24104 | 10688 ft | 320 kts | 168° |
| 2026-05-07 21:47 | 57.94536 | -6.22815 | 11356 ft | 327 kts | 168° |
| 2026-05-07 21:47 | 57.92356 | -6.21508 | 12170 ft | 330 kts | 168° |
| 2026-05-07 21:48 | 57.90157 | -6.20195 | 13030 ft | 332 kts | 168° |
| 2026-05-07 21:48 | 57.87942 | -6.18880 | 13814 ft | 335 kts | 168° |
| 2026-05-07 21:48 | 57.85698 | -6.17553 | 14502 ft | 339 kts | 168° |
| 2026-05-07 21:48 | 57.83430 | -6.16218 | 15192 ft | 343 kts | 168° |
| 2026-05-07 21:49 | 57.81171 | -6.14892 | 15873 ft | 346 kts | 169° |
| 2026-05-07 21:49 | 57.78864 | -6.13540 | 16557 ft | 350 kts | 169° |
| 2026-05-07 21:49 | 57.76525 | -6.12173 | 17184 ft | 354 kts | 169° |
| 2026-05-07 21:49 | 57.74148 | -6.10788 | 17785 ft | 360 kts | 169° |
| 2026-05-07 21:50 | 57.71745 | -6.09387 | 18409 ft | 363 kts | 169° |
| 2026-05-07 21:50 | 57.69328 | -6.07979 | 19013 ft | 364 kts | 169° |
| 2026-05-07 21:50 | 57.66896 | -6.06564 | 19604 ft | 366 kts | 168° |
| 2026-05-07 21:50 | 57.64451 | -6.05144 | 20132 ft | 370 kts | 168° |
| 2026-05-07 21:51 | 57.61985 | -6.03716 | 20643 ft | 373 kts | 168° |
| 2026-05-07 21:51 | 57.59521 | -6.02290 | 21153 ft | 376 kts | 168° |
| 2026-05-07 21:51 | 57.56979 | -6.00821 | 21709 ft | 378 kts | 168° |
| 2026-05-07 21:51 | 57.54489 | -5.99384 | 22245 ft | 380 kts | 168° |
| 2026-05-07 21:52 | 57.51948 | -5.97919 | 22764 ft | 383 kts | 168° |
| 2026-05-07 21:52 | 57.49387 | -5.96446 | 23181 ft | 387 kts | 167° |
| 2026-05-07 21:52 | 57.46784 | -5.94953 | 23537 ft | 392 kts | 167° |
| 2026-05-07 21:52 | 57.44171 | -5.93454 | 23972 ft | 394 kts | 167° |
| 2026-05-07 21:53 | 57.41581 | -5.91969 | 24444 ft | 394 kts | 167° |
| 2026-05-07 21:53 | 57.38959 | -5.90467 | 25004 ft | 392 kts | 167° |
| 2026-05-07 21:53 | 57.36361 | -5.88979 | 25605 ft | 388 kts | 167° |
| 2026-05-07 21:53 | 57.33780 | -5.87505 | 26188 ft | 386 kts | 167° |
| 2026-05-07 21:54 | 57.31213 | -5.86042 | 26714 ft | 385 kts | 168° |
| 2026-05-07 21:54 | 57.28682 | -5.84603 | 27227 ft | 384 kts | 168° |
| 2026-05-07 21:54 | 57.26134 | -5.83157 | 27795 ft | 382 kts | 168° |
| 2026-05-07 21:54 | 57.23596 | -5.81718 | 28316 ft | 380 kts | 168° |
| 2026-05-07 21:55 | 57.21056 | -5.80282 | 28711 ft | 383 kts | 168° |
| 2026-05-07 21:55 | 57.18498 | -5.78840 | 28853 ft | 387 kts | 168° |
| 2026-05-07 21:55 | 57.13360 | -5.75943 | 28861 ft | 381 kts | 168° |
| 2026-05-07 21:56 | 57.08287 | -5.73088 | 28881 ft | 382 kts | 168° |
| 2026-05-07 21:56 | 57.03183 | -5.70229 | 28896 ft | 384 kts | 168° |
| 2026-05-07 21:57 | 56.98095 | -5.67385 | 28855 ft | 385 kts | 168° |
| 2026-05-07 21:57 | 56.92974 | -5.64528 | 28871 ft | 384 kts | 168° |
| 2026-05-07 21:58 | 56.87854 | -5.61682 | 28902 ft | 384 kts | 168° |
| 2026-05-07 21:58 | 56.82727 | -5.58841 | 28901 ft | 385 kts | 168° |
| 2026-05-07 21:59 | 56.77634 | -5.56026 | 28894 ft | 385 kts | 168° |
| 2026-05-07 21:59 | 56.72492 | -5.53193 | 28898 ft | 386 kts | 168° |
| 2026-05-07 22:00 | 56.67347 | -5.50365 | 28886 ft | 385 kts | 168° |
| 2026-05-07 22:00 | 56.62220 | -5.47554 | 28901 ft | 385 kts | 168° |
| 2026-05-07 22:01 | 56.57089 | -5.44752 | 28907 ft | 386 kts | 168° |
| 2026-05-07 22:01 | 56.51946 | -5.41949 | 28910 ft | 386 kts | 168° |
| 2026-05-07 22:02 | 56.46792 | -5.39149 | 28922 ft | 387 kts | 168° |
| 2026-05-07 22:02 | 56.41627 | -5.36350 | 28909 ft | 387 kts | 168° |
| 2026-05-07 22:03 | 56.37338 | -5.34033 | 28920 ft | 387 kts | 168° |
| 2026-05-07 22:03 | 56.32164 | -5.31244 | 28919 ft | 388 kts | 168° |
| 2026-05-07 22:04 | 56.26976 | -5.28455 | 28926 ft | 388 kts | 168° |
| 2026-05-07 22:04 | 56.21825 | -5.25694 | 28925 ft | 388 kts | 168° |
| 2026-05-07 22:05 | 56.16637 | -5.22921 | 28915 ft | 388 kts | 168° |
| 2026-05-07 22:05 | 56.11454 | -5.20158 | 28926 ft | 388 kts | 168° |
| 2026-05-07 22:06 | 56.06310 | -5.17426 | 28925 ft | 388 kts | 168° |
| 2026-05-07 22:06 | 56.01135 | -5.14683 | 28934 ft | 388 kts | 168° |
| 2026-05-07 22:07 | 55.95935 | -5.11935 | 28919 ft | 388 kts | 168° |
| 2026-05-07 22:07 | 55.90792 | -5.09223 | 28939 ft | 387 kts | 168° |
| 2026-05-07 22:08 | 55.85621 | -5.06505 | 28923 ft | 383 kts | 168° |
| 2026-05-07 22:08 | 55.83098 | -5.05176 | 28775 ft | 373 kts | 168° |
| 2026-05-07 22:08 | 55.80633 | -5.03881 | 28512 ft | 365 kts | 168° |
| 2026-05-07 22:09 | 55.78208 | -5.02611 | 28123 ft | 361 kts | 168° |
| 2026-05-07 22:09 | 55.75804 | -5.01356 | 27743 ft | 358 kts | 168° |
| 2026-05-07 22:09 | 55.73424 | -5.00116 | 27369 ft | 354 kts | 168° |
| 2026-05-07 22:09 | 55.71064 | -4.98887 | 26972 ft | 352 kts | 168° |
| 2026-05-07 22:10 | 55.68750 | -4.97684 | 26600 ft | 349 kts | 168° |
| 2026-05-07 22:10 | 55.66429 | -4.96479 | 26227 ft | 346 kts | 168° |
| 2026-05-07 22:10 | 55.64122 | -4.95281 | 25854 ft | 343 kts | 168° |
| 2026-05-07 22:10 | 55.61834 | -4.94095 | 25487 ft | 341 kts | 168° |
| 2026-05-07 22:11 | 55.59560 | -4.92917 | 25124 ft | 338 kts | 168° |
| 2026-05-07 22:11 | 55.57311 | -4.91755 | 24764 ft | 336 kts | 168° |
| 2026-05-07 22:11 | 55.55101 | -4.90613 | 24411 ft | 334 kts | 168° |
| 2026-05-07 22:11 | 55.52873 | -4.89464 | 24054 ft | 332 kts | 168° |
| 2026-05-07 22:12 | 55.50662 | -4.88324 | 23702 ft | 330 kts | 168° |
| 2026-05-07 22:12 | 55.48456 | -4.87189 | 23313 ft | 329 kts | 168° |
| 2026-05-07 22:12 | 55.46265 | -4.86062 | 22910 ft | 326 kts | 168° |
| 2026-05-07 22:12 | 55.44091 | -4.84945 | 22537 ft | 324 kts | 168° |
| 2026-05-07 22:13 | 55.41935 | -4.83838 | 22182 ft | 320 kts | 168° |
| 2026-05-07 22:13 | 55.39829 | -4.82759 | 21859 ft | 317 kts | 168° |
| 2026-05-07 22:13 | 55.37712 | -4.81675 | 21505 ft | 315 kts | 168° |
| 2026-05-07 22:13 | 55.35611 | -4.80600 | 21172 ft | 313 kts | 168° |
| 2026-05-07 22:14 | 55.33523 | -4.79534 | 20828 ft | 312 kts | 169° |
| 2026-05-07 22:14 | 55.31440 | -4.78479 | 20495 ft | 312 kts | 170° |
| 2026-05-07 22:14 | 55.29329 | -4.77621 | 20169 ft | 312 kts | 173° |
| 2026-05-07 22:14 | 55.27169 | -4.76887 | 19847 ft | 320 kts | 174° |
| 2026-05-07 22:15 | 55.24964 | -4.76174 | 19488 ft | 323 kts | 174° |
| 2026-05-07 22:15 | 55.22756 | -4.75459 | 19134 ft | 321 kts | 174° |
| 2026-05-07 22:15 | 55.20561 | -4.74742 | 18777 ft | 319 kts | 174° |
| 2026-05-07 22:15 | 55.18385 | -4.74025 | 18432 ft | 317 kts | 174° |
| 2026-05-07 22:16 | 55.16244 | -4.73316 | 18044 ft | 316 kts | 174° |
| 2026-05-07 22:16 | 55.14086 | -4.72599 | 17663 ft | 314 kts | 174° |
| 2026-05-07 22:16 | 55.11946 | -4.71887 | 17309 ft | 312 kts | 174° |
| 2026-05-07 22:16 | 55.09820 | -4.71178 | 16972 ft | 309 kts | 173° |
| 2026-05-07 22:17 | 55.07710 | -4.70474 | 16623 ft | 307 kts | 173° |
| 2026-05-07 22:17 | 55.05620 | -4.69777 | 16290 ft | 305 kts | 173° |
| 2026-05-07 22:17 | 55.03542 | -4.69085 | 15953 ft | 303 kts | 173° |
| 2026-05-07 22:17 | 55.01482 | -4.68400 | 15625 ft | 301 kts | 173° |
| 2026-05-07 22:18 | 54.99435 | -4.67720 | 15297 ft | 299 kts | 173° |
| 2026-05-07 22:18 | 54.95396 | -4.66379 | 14652 ft | 296 kts | 173° |
| 2026-05-07 22:18 | 54.93378 | -4.65710 | 14334 ft | 294 kts | 173° |
| 2026-05-07 22:19 | 54.91366 | -4.65044 | 13993 ft | 293 kts | 173° |
| 2026-05-07 22:19 | 54.89365 | -4.64382 | 13663 ft | 292 kts | 173° |
| 2026-05-07 22:19 | 54.87367 | -4.63721 | 13313 ft | 292 kts | 173° |
| 2026-05-07 22:19 | 54.85374 | -4.63063 | 12974 ft | 291 kts | 172° |
| 2026-05-07 22:20 | 54.83386 | -4.62408 | 12645 ft | 290 kts | 172° |
| 2026-05-07 22:20 | 54.81410 | -4.61757 | 12310 ft | 288 kts | 172° |
| 2026-05-07 22:20 | 54.79446 | -4.61110 | 12001 ft | 287 kts | 172° |
| 2026-05-07 22:20 | 54.77483 | -4.60464 | 11674 ft | 286 kts | 172° |
| 2026-05-07 22:21 | 54.75533 | -4.59823 | 11367 ft | 285 kts | 172° |
| 2026-05-07 22:21 | 54.73609 | -4.59191 | 11057 ft | 284 kts | 172° |
| 2026-05-07 22:21 | 54.71670 | -4.58555 | 10747 ft | 283 kts | 172° |
| 2026-05-07 22:21 | 54.69737 | -4.57922 | 10430 ft | 282 kts | 172° |
| 2026-05-07 22:22 | 54.67812 | -4.57291 | 10245 ft | 277 kts | 172° |
| 2026-05-07 22:22 | 54.65943 | -4.56678 | 10105 ft | 270 kts | 172° |
| 2026-05-07 22:22 | 54.64119 | -4.56081 | 9986 ft | 263 kts | 172° |
| 2026-05-07 22:22 | 54.62326 | -4.55495 | 9710 ft | 262 kts | 172° |
| 2026-05-07 22:23 | 54.60535 | -4.54912 | 9430 ft | 261 kts | 172° |
| 2026-05-07 22:23 | 54.58777 | -4.54339 | 9157 ft | 260 kts | 172° |
| 2026-05-07 22:23 | 54.57009 | -4.53764 | 8884 ft | 258 kts | 172° |
| 2026-05-07 22:23 | 54.55221 | -4.53183 | 8611 ft | 257 kts | 172° |
| 2026-05-07 22:24 | 54.53484 | -4.52618 | 8345 ft | 256 kts | 172° |
| 2026-05-07 22:24 | 54.51734 | -4.52050 | 8076 ft | 256 kts | 172° |
| 2026-05-07 22:24 | 54.49982 | -4.51482 | 7802 ft | 255 kts | 172° |
| 2026-05-07 22:24 | 54.48233 | -4.50915 | 7534 ft | 255 kts | 172° |
| 2026-05-07 22:25 | 54.46495 | -4.50352 | 7265 ft | 254 kts | 172° |
| 2026-05-07 22:25 | 54.44756 | -4.49790 | 6998 ft | 254 kts | 172° |
| 2026-05-07 22:25 | 54.43020 | -4.49228 | 6733 ft | 253 kts | 172° |
| 2026-05-07 22:25 | 54.41284 | -4.48668 | 6459 ft | 253 kts | 172° |
| 2026-05-07 22:26 | 54.39552 | -4.48109 | 6189 ft | 253 kts | 172° |
| 2026-05-07 22:26 | 54.37829 | -4.47553 | 5916 ft | 251 kts | 172° |
| 2026-05-07 22:26 | 54.36142 | -4.47009 | 5660 ft | 249 kts | 172° |
| 2026-05-07 22:26 | 54.34446 | -4.46463 | 5397 ft | 247 kts | 172° |
| 2026-05-07 22:27 | 54.32760 | -4.45920 | 5135 ft | 245 kts | 172° |
| 2026-05-07 22:27 | 54.31093 | -4.45383 | 4878 ft | 242 kts | 172° |
| 2026-05-07 22:27 | 54.29441 | -4.44853 | 4617 ft | 240 kts | 172° |
| 2026-05-07 22:27 | 54.27804 | -4.44327 | 4367 ft | 238 kts | 172° |
| 2026-05-07 22:28 | 54.26206 | -4.43813 | 4284 ft | 229 kts | 172° |
| 2026-05-07 22:28 | 54.24661 | -4.43317 | 4167 ft | 222 kts | 172° |
| 2026-05-07 22:28 | 54.23185 | -4.42843 | 4103 ft | 209 kts | 172° |
| 2026-05-07 22:28 | 54.21813 | -4.42404 | 3969 ft | 197 kts | 173° |
| 2026-05-07 22:29 | 54.20499 | -4.41985 | 3887 ft | 189 kts | 173° |
| 2026-05-07 22:29 | 54.19203 | -4.41571 | 3729 ft | 189 kts | 173° |
| 2026-05-07 22:29 | 54.17902 | -4.41157 | 3536 ft | 191 kts | 173° |
| 2026-05-07 22:29 | 54.16586 | -4.40739 | 3326 ft | 193 kts | 173° |
| 2026-05-07 22:30 | 54.15272 | -4.40320 | 3104 ft | 190 kts | 172° |
| 2026-05-07 22:30 | 54.13999 | -4.39913 | 2903 ft | 182 kts | 172° |
| 2026-05-07 22:30 | 54.12778 | -4.39537 | 2692 ft | 174 kts | 177° |
| 2026-05-07 22:30 | 54.11685 | -4.39999 | 2550 ft | 160 kts | 223° |
| 2026-05-07 22:31 | 54.11158 | -4.41714 | 2418 ft | 170 kts | 248° |
| 2026-05-07 22:31 | 54.10783 | -4.43625 | 2174 ft | 168 kts | 248° |
| 2026-05-07 22:31 | 54.10467 | -4.45505 | 1944 ft | 165 kts | 252° |
| 2026-05-07 22:31 | 54.10217 | -4.47388 | 1726 ft | 160 kts | 253° |
| 2026-05-07 22:32 | 54.09986 | -4.49220 | 1504 ft | 155 kts | 253° |
| 2026-05-07 22:32 | 54.09767 | -4.50960 | 1320 ft | 144 kts | 252° |
| 2026-05-07 22:32 | 54.09564 | -4.52566 | 1094 ft | 135 kts | 251° |
| 2026-05-07 22:32 | 54.09367 | -4.54116 | 922 ft | 134 kts | 252° |
| 2026-05-07 22:33 | 54.09174 | -4.55653 | 731 ft | 135 kts | 252° |
| 2026-05-07 22:33 | 54.08975 | -4.57226 | 551 ft | 136 kts | 252° |
| 2026-05-07 22:33 | 54.08782 | -4.58812 | 334 ft | 137 kts | 251° |
| 2026-05-07 22:33 | 54.08566 | -4.60411 | 179 ft | 140 kts | 255° |
| 2026-05-07 22:34 | 54.08374 | -4.62035 | 41 ft | 133 kts | 253° |
| 2026-05-07 22:34 | 54.08220 | -4.63207 | 39 ft | 70 kts | 258° |
| 2026-05-07 22:34 | 54.08166 | -4.63671 | 35 ft | 15 kts | 258° |
| 2026-05-07 22:34 | 54.08148 | -4.63814 | 34 ft | 10 kts | 258° |
| 2026-05-07 22:35 | 54.08182 | -4.63894 | 34 ft | 9 kts | 345° |
| 2026-05-07 22:35 | 54.08243 | -4.63881 | 40 ft | 9 kts | 37° |
| 2026-05-07 22:35 | 54.08276 | -4.63792 | 43 ft | 9 kts | 62° |
| 2026-05-07 22:35 | 54.08305 | -4.63701 | 45 ft | 9 kts | 62° |
| 2026-05-07 22:36 | 54.08332 | -4.63612 | 46 ft | 8 kts | 65° |
| 2026-05-07 22:36 | 54.08351 | -4.63496 | 41 ft | 11 kts | 78° |
| 2026-05-07 22:36 | 54.08378 | -4.63392 | 42 ft | 10 kts | 26° |
| 2026-05-07 22:36 | 54.08446 | -4.63385 | 43 ft | 10 kts | 16° |
| 2026-05-07 22:37 | 54.08504 | -4.63334 | 44 ft | 9 kts | 21° |
| 2026-05-07 22:37 | 54.08531 | -4.63318 | 44 ft | 3 kts | 27° |
| 2026-05-07 22:37 | 54.08550 | -4.63297 | 44 ft | 3 kts | 37° |
| 2026-05-07 22:37 | 54.08561 | -4.63277 | 44 ft | 1 kts | 47° |
| 2026-05-07 22:38 | 54.08562 | -4.63276 | 44 ft | 0 kts | 47° |